sensor_id;sensor_type;location;lat;lon;timestamp;P1;durP1;ratioP1;P2;durP2;ratioP2
2225;SDS011;1119;48.288;8.726;2023-06-22T00:01:34;10.67;;;9.67;;
2225;SDS011;1119;48.288;8.726;2023-06-22T00:04:01;9.50;;;8.70;;
2225;SDS011;1119;48.288;8.726;2023-06-22T00:06:29;13.33;;;9.60;;
2225;SDS011;1119;48.288;8.726;2023-06-22T00:08:57;9.97;;;9.07;;
2225;SDS011;1119;48.288;8.726;2023-06-22T00:11:24;11.53;;;10.47;;
2225;SDS011;1119;48.288;8.726;2023-06-22T00:13:53;9.20;;;8.50;;
2225;SDS011;1119;48.288;8.726;2023-06-22T00:16:20;9.60;;;9.10;;
2225;SDS011;1119;48.288;8.726;2023-06-22T00:18:47;9.73;;;8.93;;
2225;SDS011;1119;48.288;8.726;2023-06-22T00:21:15;10.70;;;9.80;;
2225;SDS011;1119;48.288;8.726;2023-06-22T00:23:42;9.87;;;9.17;;
2225;SDS011;1119;48.288;8.726;2023-06-22T00:26:10;10.20;;;9.50;;
2225;SDS011;1119;48.288;8.726;2023-06-22T00:28:38;10.70;;;9.80;;
2225;SDS011;1119;48.288;8.726;2023-06-22T00:31:05;10.73;;;9.87;;
2225;SDS011;1119;48.288;8.726;2023-06-22T00:33:32;10.47;;;9.57;;
2225;SDS011;1119;48.288;8.726;2023-06-22T00:35:59;10.40;;;9.50;;
2225;SDS011;1119;48.288;8.726;2023-06-22T00:38:29;11.20;;;10.30;;
2225;SDS011;1119;48.288;8.726;2023-06-22T00:40:57;10.70;;;9.80;;
2225;SDS011;1119;48.288;8.726;2023-06-22T00:43:25;11.37;;;10.27;;
2225;SDS011;1119;48.288;8.726;2023-06-22T00:45:54;10.33;;;9.47;;
2225;SDS011;1119;48.288;8.726;2023-06-22T00:48:23;10.03;;;9.13;;
2225;SDS011;1119;48.288;8.726;2023-06-22T00:50:50;10.87;;;9.93;;
2225;SDS011;1119;48.288;8.726;2023-06-22T00:53:19;11.03;;;10.03;;
2225;SDS011;1119;48.288;8.726;2023-06-22T00:55:46;13.20;;;10.43;;
2225;SDS011;1119;48.288;8.726;2023-06-22T00:58:16;11.30;;;10.53;;
2225;SDS011;1119;48.288;8.726;2023-06-22T01:00:51;12.27;;;11.27;;
2225;SDS011;1119;48.288;8.726;2023-06-22T01:03:20;13.53;;;12.20;;
2225;SDS011;1119;48.288;8.726;2023-06-22T01:05:47;10.80;;;10.00;;
2225;SDS011;1119;48.288;8.726;2023-06-22T01:08:19;13.23;;;12.03;;
2225;SDS011;1119;48.288;8.726;2023-06-22T01:10:58;11.90;;;10.93;;
2225;SDS011;1119;48.288;8.726;2023-06-22T01:13:35;11.27;;;10.27;;
2225;SDS011;1119;48.288;8.726;2023-06-22T01:16:17;14.60;;;11.93;;
2225;SDS011;1119;48.288;8.726;2023-06-22T01:18:50;13.50;;;12.40;;
2225;SDS011;1119;48.288;8.726;2023-06-22T01:21:22;12.30;;;11.10;;
2225;SDS011;1119;48.288;8.726;2023-06-22T01:23:55;12.80;;;11.80;;
2225;SDS011;1119;48.288;8.726;2023-06-22T01:26:37;12.07;;;11.07;;
2225;SDS011;1119;48.288;8.726;2023-06-22T01:29:09;13.90;;;12.60;;
2225;SDS011;1119;48.288;8.726;2023-06-22T01:31:39;13.63;;;12.43;;
2225;SDS011;1119;48.288;8.726;2023-06-22T01:34:08;12.63;;;11.73;;
2225;SDS011;1119;48.288;8.726;2023-06-22T01:36:38;13.07;;;11.83;;
2225;SDS011;1119;48.288;8.726;2023-06-22T01:39:05;13.37;;;11.93;;
2225;SDS011;1119;48.288;8.726;2023-06-22T01:41:34;13.23;;;12.13;;
2225;SDS011;1119;48.288;8.726;2023-06-22T01:44:04;15.03;;;12.90;;
2225;SDS011;1119;48.288;8.726;2023-06-22T01:46:33;12.13;;;11.00;;
2225;SDS011;1119;48.288;8.726;2023-06-22T01:49:02;12.70;;;11.70;;
2225;SDS011;1119;48.288;8.726;2023-06-22T01:51:30;14.33;;;11.63;;
2225;SDS011;1119;48.288;8.726;2023-06-22T01:53:59;12.60;;;11.37;;
2225;SDS011;1119;48.288;8.726;2023-06-22T01:56:27;13.40;;;11.50;;
2225;SDS011;1119;48.288;8.726;2023-06-22T01:58:57;12.23;;;11.23;;
2225;SDS011;1119;48.288;8.726;2023-06-22T02:01:31;15.17;;;12.57;;
2225;SDS011;1119;48.288;8.726;2023-06-22T02:04:11;13.27;;;12.03;;
2225;SDS011;1119;48.288;8.726;2023-06-22T02:06:45;13.70;;;12.27;;
2225;SDS011;1119;48.288;8.726;2023-06-22T02:09:16;13.27;;;11.87;;
2225;SDS011;1119;48.288;8.726;2023-06-22T02:11:46;13.00;;;11.87;;
2225;SDS011;1119;48.288;8.726;2023-06-22T02:14:17;14.33;;;13.13;;
2225;SDS011;1119;48.288;8.726;2023-06-22T02:16:46;14.17;;;12.13;;
2225;SDS011;1119;48.288;8.726;2023-06-22T02:19:14;14.77;;;13.57;;
2225;SDS011;1119;48.288;8.726;2023-06-22T02:21:43;13.27;;;12.17;;
2225;SDS011;1119;48.288;8.726;2023-06-22T02:24:12;13.40;;;11.90;;
2225;SDS011;1119;48.288;8.726;2023-06-22T02:26:39;13.97;;;11.63;;
2225;SDS011;1119;48.288;8.726;2023-06-22T02:29:07;13.50;;;12.30;;
2225;SDS011;1119;48.288;8.726;2023-06-22T02:31:35;15.17;;;13.67;;
2225;SDS011;1119;48.288;8.726;2023-06-22T02:34:03;15.47;;;14.03;;
2225;SDS011;1119;48.288;8.726;2023-06-22T02:36:31;16.07;;;14.60;;
2225;SDS011;1119;48.288;8.726;2023-06-22T02:39:00;13.47;;;12.23;;
2225;SDS011;1119;48.288;8.726;2023-06-22T02:41:29;14.53;;;13.27;;
2225;SDS011;1119;48.288;8.726;2023-06-22T02:43:56;14.53;;;13.13;;
2225;SDS011;1119;48.288;8.726;2023-06-22T02:46:24;16.27;;;14.83;;
2225;SDS011;1119;48.288;8.726;2023-06-22T02:48:52;15.20;;;14.17;;
2225;SDS011;1119;48.288;8.726;2023-06-22T02:51:21;15.00;;;13.70;;
2225;SDS011;1119;48.288;8.726;2023-06-22T02:53:48;14.93;;;12.90;;
2225;SDS011;1119;48.288;8.726;2023-06-22T02:56:22;14.77;;;13.57;;
2225;SDS011;1119;48.288;8.726;2023-06-22T02:58:53;16.30;;;14.80;;
2225;SDS011;1119;48.288;8.726;2023-06-22T03:01:26;16.20;;;14.70;;
2225;SDS011;1119;48.288;8.726;2023-06-22T03:03:55;13.33;;;12.03;;
2225;SDS011;1119;48.288;8.726;2023-06-22T03:06:24;14.17;;;13.07;;
2225;SDS011;1119;48.288;8.726;2023-06-22T03:08:57;13.30;;;12.20;;
2225;SDS011;1119;48.288;8.726;2023-06-22T03:11:27;14.07;;;12.77;;
2225;SDS011;1119;48.288;8.726;2023-06-22T03:13:57;14.20;;;13.10;;
2225;SDS011;1119;48.288;8.726;2023-06-22T03:16:24;17.73;;;16.13;;
2225;SDS011;1119;48.288;8.726;2023-06-22T03:18:52;17.23;;;15.67;;
2225;SDS011;1119;48.288;8.726;2023-06-22T03:21:21;15.90;;;14.40;;
2225;SDS011;1119;48.288;8.726;2023-06-22T03:23:52;17.90;;;15.97;;
2225;SDS011;1119;48.288;8.726;2023-06-22T03:26:19;13.53;;;12.53;;
2225;SDS011;1119;48.288;8.726;2023-06-22T03:28:46;16.60;;;15.03;;
2225;SDS011;1119;48.288;8.726;2023-06-22T03:31:13;16.93;;;15.20;;
2225;SDS011;1119;48.288;8.726;2023-06-22T03:33:41;17.23;;;15.67;;
2225;SDS011;1119;48.288;8.726;2023-06-22T03:36:08;16.33;;;14.60;;
2225;SDS011;1119;48.288;8.726;2023-06-22T03:38:37;15.00;;;13.60;;
2225;SDS011;1119;48.288;8.726;2023-06-22T03:41:04;15.13;;;13.80;;
2225;SDS011;1119;48.288;8.726;2023-06-22T03:43:32;16.33;;;14.93;;
2225;SDS011;1119;48.288;8.726;2023-06-22T03:45:59;16.90;;;15.40;;
2225;SDS011;1119;48.288;8.726;2023-06-22T03:48:26;17.03;;;15.33;;
2225;SDS011;1119;48.288;8.726;2023-06-22T03:50:54;16.77;;;15.30;;
2225;SDS011;1119;48.288;8.726;2023-06-22T03:53:21;17.50;;;16.00;;
2225;SDS011;1119;48.288;8.726;2023-06-22T03:55:50;16.73;;;14.97;;
2225;SDS011;1119;48.288;8.726;2023-06-22T03:58:19;15.17;;;13.87;;
2225;SDS011;1119;48.288;8.726;2023-06-22T04:00:47;14.93;;;13.57;;
2225;SDS011;1119;48.288;8.726;2023-06-22T04:03:16;17.30;;;15.60;;
2225;SDS011;1119;48.288;8.726;2023-06-22T04:05:44;16.37;;;14.97;;
2225;SDS011;1119;48.288;8.726;2023-06-22T04:08:12;17.07;;;15.67;;
2225;SDS011;1119;48.288;8.726;2023-06-22T04:10:40;15.67;;;14.17;;
2225;SDS011;1119;48.288;8.726;2023-06-22T04:13:08;17.80;;;16.10;;
2225;SDS011;1119;48.288;8.726;2023-06-22T04:15:36;16.83;;;14.63;;
2225;SDS011;1119;48.288;8.726;2023-06-22T04:18:03;15.90;;;14.13;;
2225;SDS011;1119;48.288;8.726;2023-06-22T04:20:31;15.53;;;14.00;;
2225;SDS011;1119;48.288;8.726;2023-06-22T04:22:59;15.93;;;14.33;;
2225;SDS011;1119;48.288;8.726;2023-06-22T04:25:26;15.57;;;14.37;;
2225;SDS011;1119;48.288;8.726;2023-06-22T04:27:53;15.93;;;14.60;;
2225;SDS011;1119;48.288;8.726;2023-06-22T04:30:22;18.10;;;15.10;;
2225;SDS011;1119;48.288;8.726;2023-06-22T04:32:49;14.83;;;13.60;;
2225;SDS011;1119;48.288;8.726;2023-06-22T04:35:21;16.00;;;14.70;;
2225;SDS011;1119;48.288;8.726;2023-06-22T04:37:49;16.27;;;14.60;;
2225;SDS011;1119;48.288;8.726;2023-06-22T04:40:20;15.97;;;14.50;;
2225;SDS011;1119;48.288;8.726;2023-06-22T04:42:48;15.90;;;14.43;;
2225;SDS011;1119;48.288;8.726;2023-06-22T04:45:19;15.97;;;14.47;;
2225;SDS011;1119;48.288;8.726;2023-06-22T04:47:48;16.93;;;15.33;;
2225;SDS011;1119;48.288;8.726;2023-06-22T04:50:15;14.93;;;13.63;;
2225;SDS011;1119;48.288;8.726;2023-06-22T04:52:46;20.07;;;13.97;;
2225;SDS011;1119;48.288;8.726;2023-06-22T04:55:14;15.20;;;13.70;;
2225;SDS011;1119;48.288;8.726;2023-06-22T04:57:43;16.20;;;14.70;;
2225;SDS011;1119;48.288;8.726;2023-06-22T05:00:14;17.23;;;14.30;;
2225;SDS011;1119;48.288;8.726;2023-06-22T05:02:45;16.30;;;14.77;;
2225;SDS011;1119;48.288;8.726;2023-06-22T05:05:13;16.17;;;14.73;;
2225;SDS011;1119;48.288;8.726;2023-06-22T05:07:42;14.63;;;13.13;;
2225;SDS011;1119;48.288;8.726;2023-06-22T05:10:10;16.23;;;14.87;;
2225;SDS011;1119;48.288;8.726;2023-06-22T05:12:38;15.60;;;14.20;;
2225;SDS011;1119;48.288;8.726;2023-06-22T05:15:07;15.40;;;14.00;;
2225;SDS011;1119;48.288;8.726;2023-06-22T05:17:35;16.37;;;15.07;;
2225;SDS011;1119;48.288;8.726;2023-06-22T05:20:10;16.53;;;14.83;;
2225;SDS011;1119;48.288;8.726;2023-06-22T05:22:38;15.60;;;14.20;;
2225;SDS011;1119;48.288;8.726;2023-06-22T05:25:07;17.73;;;16.30;;
2225;SDS011;1119;48.288;8.726;2023-06-22T05:27:36;15.93;;;14.33;;
2225;SDS011;1119;48.288;8.726;2023-06-22T05:30:05;15.60;;;14.10;;
2225;SDS011;1119;48.288;8.726;2023-06-22T05:32:33;15.87;;;14.40;;
2225;SDS011;1119;48.288;8.726;2023-06-22T05:35:01;16.07;;;14.47;;
2225;SDS011;1119;48.288;8.726;2023-06-22T05:37:30;15.03;;;13.73;;
2225;SDS011;1119;48.288;8.726;2023-06-22T05:39:57;15.93;;;14.70;;
2225;SDS011;1119;48.288;8.726;2023-06-22T05:42:25;15.60;;;14.33;;
2225;SDS011;1119;48.288;8.726;2023-06-22T05:44:52;14.13;;;12.93;;
2225;SDS011;1119;48.288;8.726;2023-06-22T05:47:19;13.60;;;12.50;;
2225;SDS011;1119;48.288;8.726;2023-06-22T05:49:48;14.10;;;12.90;;
2225;SDS011;1119;48.288;8.726;2023-06-22T05:52:15;15.60;;;14.20;;
2225;SDS011;1119;48.288;8.726;2023-06-22T05:54:44;14.43;;;13.13;;
2225;SDS011;1119;48.288;8.726;2023-06-22T05:57:11;14.57;;;13.27;;
2225;SDS011;1119;48.288;8.726;2023-06-22T05:59:38;16.43;;;15.03;;
2225;SDS011;1119;48.288;8.726;2023-06-22T06:02:05;15.47;;;13.97;;
2225;SDS011;1119;48.288;8.726;2023-06-22T06:04:33;15.37;;;14.07;;
2225;SDS011;1119;48.288;8.726;2023-06-22T06:07:01;11.23;;;10.33;;
2225;SDS011;1119;48.288;8.726;2023-06-22T06:09:28;12.93;;;11.37;;
2225;SDS011;1119;48.288;8.726;2023-06-22T06:11:57;14.40;;;12.90;;
2225;SDS011;1119;48.288;8.726;2023-06-22T06:14:24;11.23;;;10.40;;
2225;SDS011;1119;48.288;8.726;2023-06-22T06:16:51;11.37;;;10.33;;
2225;SDS011;1119;48.288;8.726;2023-06-22T06:19:18;12.97;;;11.90;;
2225;SDS011;1119;48.288;8.726;2023-06-22T06:21:46;12.57;;;10.50;;
2225;SDS011;1119;48.288;8.726;2023-06-22T06:24:13;11.07;;;10.07;;
2225;SDS011;1119;48.288;8.726;2023-06-22T06:26:40;12.10;;;11.00;;
2225;SDS011;1119;48.288;8.726;2023-06-22T06:29:09;11.60;;;10.43;;
2225;SDS011;1119;48.288;8.726;2023-06-22T06:31:36;10.90;;;9.87;;
2225;SDS011;1119;48.288;8.726;2023-06-22T06:34:03;11.93;;;10.93;;
2225;SDS011;1119;48.288;8.726;2023-06-22T06:36:31;11.07;;;10.00;;
2225;SDS011;1119;48.288;8.726;2023-06-22T06:38:58;15.93;;;11.07;;
2225;SDS011;1119;48.288;8.726;2023-06-22T06:41:25;12.30;;;9.83;;
2225;SDS011;1119;48.288;8.726;2023-06-22T06:43:52;12.47;;;11.37;;
2225;SDS011;1119;48.288;8.726;2023-06-22T06:46:21;12.00;;;11.10;;
2225;SDS011;1119;48.288;8.726;2023-06-22T06:48:48;10.60;;;9.80;;
2225;SDS011;1119;48.288;8.726;2023-06-22T06:51:15;11.20;;;10.40;;
2225;SDS011;1119;48.288;8.726;2023-06-22T06:53:43;12.30;;;11.10;;
2225;SDS011;1119;48.288;8.726;2023-06-22T06:56:10;10.23;;;9.33;;
2225;SDS011;1119;48.288;8.726;2023-06-22T06:58:38;11.30;;;10.50;;
2225;SDS011;1119;48.288;8.726;2023-06-22T07:01:07;11.63;;;10.63;;
2225;SDS011;1119;48.288;8.726;2023-06-22T07:03:36;10.57;;;9.47;;
2225;SDS011;1119;48.288;8.726;2023-06-22T07:06:03;10.90;;;10.10;;
2225;SDS011;1119;48.288;8.726;2023-06-22T07:08:30;11.20;;;10.10;;
2225;SDS011;1119;48.288;8.726;2023-06-22T07:14:06;11.00;;;10.10;;
2225;SDS011;1119;48.288;8.726;2023-06-22T07:16:35;10.73;;;9.50;;
2225;SDS011;1119;48.288;8.726;2023-06-22T07:19:03;10.40;;;9.60;;
2225;SDS011;1119;48.288;8.726;2023-06-22T07:21:31;11.40;;;10.40;;
2225;SDS011;1119;48.288;8.726;2023-06-22T07:23:58;10.80;;;9.80;;
2225;SDS011;1119;48.288;8.726;2023-06-22T07:26:25;10.70;;;9.87;;
2225;SDS011;1119;48.288;8.726;2023-06-22T07:28:52;10.97;;;10.27;;
2225;SDS011;1119;48.288;8.726;2023-06-22T07:31:19;10.50;;;9.60;;
2225;SDS011;1119;48.288;8.726;2023-06-22T07:33:47;9.57;;;8.77;;
2225;SDS011;1119;48.288;8.726;2023-06-22T07:36:16;10.87;;;10.07;;
2225;SDS011;1119;48.288;8.726;2023-06-22T07:38:43;12.20;;;11.20;;
2225;SDS011;1119;48.288;8.726;2023-06-22T07:41:11;12.23;;;11.00;;
2225;SDS011;1119;48.288;8.726;2023-06-22T07:43:39;10.40;;;9.10;;
2225;SDS011;1119;48.288;8.726;2023-06-22T07:46:06;10.77;;;9.67;;
2225;SDS011;1119;48.288;8.726;2023-06-22T07:48:36;11.50;;;10.67;;
2225;SDS011;1119;48.288;8.726;2023-06-22T07:51:04;12.50;;;11.50;;
2225;SDS011;1119;48.288;8.726;2023-06-22T07:53:33;11.10;;;10.33;;
2225;SDS011;1119;48.288;8.726;2023-06-22T07:56:01;11.07;;;10.17;;
2225;SDS011;1119;48.288;8.726;2023-06-22T07:58:32;11.47;;;10.27;;
2225;SDS011;1119;48.288;8.726;2023-06-22T08:00:59;12.30;;;11.10;;
2225;SDS011;1119;48.288;8.726;2023-06-22T08:03:28;10.33;;;9.60;;
2225;SDS011;1119;48.288;8.726;2023-06-22T08:05:55;11.67;;;10.53;;
2225;SDS011;1119;48.288;8.726;2023-06-22T08:08:23;10.60;;;9.80;;
2225;SDS011;1119;48.288;8.726;2023-06-22T08:10:52;10.73;;;9.77;;
2225;SDS011;1119;48.288;8.726;2023-06-22T08:13:19;11.57;;;10.47;;
2225;SDS011;1119;48.288;8.726;2023-06-22T08:15:49;11.43;;;10.30;;
2225;SDS011;1119;48.288;8.726;2023-06-22T08:18:16;11.60;;;10.70;;
2225;SDS011;1119;48.288;8.726;2023-06-22T08:20:43;10.90;;;10.00;;
2225;SDS011;1119;48.288;8.726;2023-06-22T08:23:11;13.03;;;11.73;;
2225;SDS011;1119;48.288;8.726;2023-06-22T08:25:38;10.03;;;9.33;;
2225;SDS011;1119;48.288;8.726;2023-06-22T08:28:07;14.60;;;11.43;;
2225;SDS011;1119;48.288;8.726;2023-06-22T08:30:34;10.50;;;9.70;;
2225;SDS011;1119;48.288;8.726;2023-06-22T08:33:01;10.93;;;9.97;;
2225;SDS011;1119;48.288;8.726;2023-06-22T08:35:28;13.23;;;10.73;;
2225;SDS011;1119;48.288;8.726;2023-06-22T08:37:56;13.00;;;11.60;;
2225;SDS011;1119;48.288;8.726;2023-06-22T08:40:24;13.30;;;12.10;;
2225;SDS011;1119;48.288;8.726;2023-06-22T08:42:52;11.53;;;10.67;;
2225;SDS011;1119;48.288;8.726;2023-06-22T08:45:20;10.70;;;9.80;;
2225;SDS011;1119;48.288;8.726;2023-06-22T08:47:48;11.70;;;10.80;;
2225;SDS011;1119;48.288;8.726;2023-06-22T08:50:15;11.47;;;10.47;;
2225;SDS011;1119;48.288;8.726;2023-06-22T08:52:42;11.43;;;10.60;;
2225;SDS011;1119;48.288;8.726;2023-06-22T08:55:11;14.67;;;10.87;;
2225;SDS011;1119;48.288;8.726;2023-06-22T08:57:39;12.20;;;10.30;;
2225;SDS011;1119;48.288;8.726;2023-06-22T09:00:08;14.00;;;12.63;;
2225;SDS011;1119;48.288;8.726;2023-06-22T09:02:45;11.53;;;10.57;;
2225;SDS011;1119;48.288;8.726;2023-06-22T09:05:13;11.73;;;10.63;;
2225;SDS011;1119;48.288;8.726;2023-06-22T09:07:41;11.27;;;10.30;;
2225;SDS011;1119;48.288;8.726;2023-06-22T09:10:08;11.73;;;10.73;;
2225;SDS011;1119;48.288;8.726;2023-06-22T09:12:36;13.90;;;12.60;;
2225;SDS011;1119;48.288;8.726;2023-06-22T09:15:04;16.20;;;14.73;;
2225;SDS011;1119;48.288;8.726;2023-06-22T09:17:33;16.73;;;15.83;;
2225;SDS011;1119;48.288;8.726;2023-06-22T09:20:04;12.43;;;11.43;;
2225;SDS011;1119;48.288;8.726;2023-06-22T09:22:36;13.13;;;12.23;;
2225;SDS011;1119;48.288;8.726;2023-06-22T09:25:03;12.43;;;11.23;;
2225;SDS011;1119;48.288;8.726;2023-06-22T09:27:32;12.10;;;11.00;;
2225;SDS011;1119;48.288;8.726;2023-06-22T09:30:00;11.33;;;10.43;;
2225;SDS011;1119;48.288;8.726;2023-06-22T09:32:28;11.27;;;10.30;;
2225;SDS011;1119;48.288;8.726;2023-06-22T09:34:56;16.07;;;11.60;;
2225;SDS011;1119;48.288;8.726;2023-06-22T09:37:24;12.87;;;11.77;;
2225;SDS011;1119;48.288;8.726;2023-06-22T09:39:51;13.03;;;12.07;;
2225;SDS011;1119;48.288;8.726;2023-06-22T09:42:19;14.40;;;13.00;;
2225;SDS011;1119;48.288;8.726;2023-06-22T09:44:46;13.20;;;11.90;;
2225;SDS011;1119;48.288;8.726;2023-06-22T09:47:13;11.50;;;10.60;;
2225;SDS011;1119;48.288;8.726;2023-06-22T09:49:40;12.10;;;11.13;;
2225;SDS011;1119;48.288;8.726;2023-06-22T09:52:08;11.80;;;10.80;;
2225;SDS011;1119;48.288;8.726;2023-06-22T09:54:38;11.83;;;10.80;;
2225;SDS011;1119;48.288;8.726;2023-06-22T09:57:05;12.30;;;11.13;;
2225;SDS011;1119;48.288;8.726;2023-06-22T09:59:33;12.70;;;11.47;;
2225;SDS011;1119;48.288;8.726;2023-06-22T10:02:00;11.77;;;11.07;;
2225;SDS011;1119;48.288;8.726;2023-06-22T10:04:27;12.70;;;11.50;;
2225;SDS011;1119;48.288;8.726;2023-06-22T10:06:55;11.80;;;11.00;;
2225;SDS011;1119;48.288;8.726;2023-06-22T10:09:22;11.40;;;10.50;;
2225;SDS011;1119;48.288;8.726;2023-06-22T10:11:51;12.60;;;11.40;;
2225;SDS011;1119;48.288;8.726;2023-06-22T10:14:18;11.80;;;11.00;;
2225;SDS011;1119;48.288;8.726;2023-06-22T10:16:46;11.20;;;10.40;;
2225;SDS011;1119;48.288;8.726;2023-06-22T10:19:14;13.90;;;11.23;;
2225;SDS011;1119;48.288;8.726;2023-06-22T10:21:41;10.83;;;10.07;;
2225;SDS011;1119;48.288;8.726;2023-06-22T10:24:09;11.63;;;10.70;;
2225;SDS011;1119;48.288;8.726;2023-06-22T10:26:36;15.47;;;11.20;;
2225;SDS011;1119;48.288;8.726;2023-06-22T10:29:05;11.90;;;10.83;;
2225;SDS011;1119;48.288;8.726;2023-06-22T10:31:32;13.53;;;12.17;;
2225;SDS011;1119;48.288;8.726;2023-06-22T10:33:59;12.80;;;11.67;;
2225;SDS011;1119;48.288;8.726;2023-06-22T10:36:26;15.47;;;12.37;;
2225;SDS011;1119;48.288;8.726;2023-06-22T10:38:54;13.87;;;12.63;;
2225;SDS011;1119;48.288;8.726;2023-06-22T10:41:24;11.70;;;10.60;;
2225;SDS011;1119;48.288;8.726;2023-06-22T10:43:54;12.57;;;10.77;;
2225;SDS011;1119;48.288;8.726;2023-06-22T10:46:23;12.47;;;11.30;;
2225;SDS011;1119;48.288;8.726;2023-06-22T10:48:51;10.90;;;10.10;;
2225;SDS011;1119;48.288;8.726;2023-06-22T10:51:20;11.97;;;10.83;;
2225;SDS011;1119;48.288;8.726;2023-06-22T10:53:47;11.50;;;10.43;;
2225;SDS011;1119;48.288;8.726;2023-06-22T10:56:16;12.87;;;11.53;;
2225;SDS011;1119;48.288;8.726;2023-06-22T10:58:44;12.07;;;10.73;;
2225;SDS011;1119;48.288;8.726;2023-06-22T11:01:12;12.00;;;11.07;;
2225;SDS011;1119;48.288;8.726;2023-06-22T11:03:41;12.33;;;11.10;;
2225;SDS011;1119;48.288;8.726;2023-06-22T11:06:08;12.53;;;11.53;;
2225;SDS011;1119;48.288;8.726;2023-06-22T11:08:35;13.30;;;10.90;;
2225;SDS011;1119;48.288;8.726;2023-06-22T11:11:02;12.63;;;11.80;;
2225;SDS011;1119;48.288;8.726;2023-06-22T11:13:30;14.20;;;11.40;;
2225;SDS011;1119;48.288;8.726;2023-06-22T11:15:57;10.80;;;10.10;;
2225;SDS011;1119;48.288;8.726;2023-06-22T11:18:24;12.43;;;11.30;;
2225;SDS011;1119;48.288;8.726;2023-06-22T11:20:53;18.90;;;12.33;;
2225;SDS011;1119;48.288;8.726;2023-06-22T11:23:21;13.03;;;11.80;;
2225;SDS011;1119;48.288;8.726;2023-06-22T11:25:48;11.13;;;10.20;;
2225;SDS011;1119;48.288;8.726;2023-06-22T11:28:15;15.17;;;11.40;;
2225;SDS011;1119;48.288;8.726;2023-06-22T11:30:42;17.07;;;15.50;;
2225;SDS011;1119;48.288;8.726;2023-06-22T11:33:09;13.30;;;12.17;;
2225;SDS011;1119;48.288;8.726;2023-06-22T11:35:37;12.23;;;11.30;;
2225;SDS011;1119;48.288;8.726;2023-06-22T11:38:05;12.37;;;11.23;;
2225;SDS011;1119;48.288;8.726;2023-06-22T11:40:33;12.80;;;11.70;;
2225;SDS011;1119;48.288;8.726;2023-06-22T11:43:00;16.13;;;14.77;;
2225;SDS011;1119;48.288;8.726;2023-06-22T11:45:28;15.37;;;14.33;;
2225;SDS011;1119;48.288;8.726;2023-06-22T11:47:55;13.00;;;11.90;;
2225;SDS011;1119;48.288;8.726;2023-06-22T11:50:22;27.57;;;25.37;;
2225;SDS011;1119;48.288;8.726;2023-06-22T11:52:50;14.70;;;11.30;;
2225;SDS011;1119;48.288;8.726;2023-06-22T11:55:19;11.33;;;10.43;;
2225;SDS011;1119;48.288;8.726;2023-06-22T11:57:54;11.83;;;10.47;;
2225;SDS011;1119;48.288;8.726;2023-06-22T12:00:24;12.57;;;11.47;;
2225;SDS011;1119;48.288;8.726;2023-06-22T12:02:51;11.47;;;10.67;;
2225;SDS011;1119;48.288;8.726;2023-06-22T12:05:19;11.77;;;10.67;;
2225;SDS011;1119;48.288;8.726;2023-06-22T12:07:47;12.30;;;10.97;;
2225;SDS011;1119;48.288;8.726;2023-06-22T12:10:15;11.67;;;10.60;;
2225;SDS011;1119;48.288;8.726;2023-06-22T12:12:43;12.43;;;11.43;;
2225;SDS011;1119;48.288;8.726;2023-06-22T12:15:11;12.03;;;11.00;;
2225;SDS011;1119;48.288;8.726;2023-06-22T12:17:38;12.83;;;11.50;;
2225;SDS011;1119;48.288;8.726;2023-06-22T12:20:07;12.37;;;11.40;;
2225;SDS011;1119;48.288;8.726;2023-06-22T12:22:35;14.13;;;12.83;;
2225;SDS011;1119;48.288;8.726;2023-06-22T12:25:04;14.13;;;11.33;;
2225;SDS011;1119;48.288;8.726;2023-06-22T12:27:32;13.60;;;12.07;;
2225;SDS011;1119;48.288;8.726;2023-06-22T12:30:01;11.27;;;10.17;;
2225;SDS011;1119;48.288;8.726;2023-06-22T12:32:29;12.70;;;11.43;;
2225;SDS011;1119;48.288;8.726;2023-06-22T12:34:56;11.80;;;10.80;;
2225;SDS011;1119;48.288;8.726;2023-06-22T12:37:24;20.03;;;11.37;;
2225;SDS011;1119;48.288;8.726;2023-06-22T12:39:53;12.87;;;11.57;;
2225;SDS011;1119;48.288;8.726;2023-06-22T12:42:21;10.87;;;9.77;;
2225;SDS011;1119;48.288;8.726;2023-06-22T12:44:49;15.77;;;11.00;;
2225;SDS011;1119;48.288;8.726;2023-06-22T12:47:17;12.73;;;11.47;;
2225;SDS011;1119;48.288;8.726;2023-06-22T12:49:45;11.93;;;10.70;;
2225;SDS011;1119;48.288;8.726;2023-06-22T12:52:12;12.63;;;11.30;;
2225;SDS011;1119;48.288;8.726;2023-06-22T12:54:40;12.73;;;11.63;;
2225;SDS011;1119;48.288;8.726;2023-06-22T12:57:07;13.43;;;10.73;;
2225;SDS011;1119;48.288;8.726;2023-06-22T12:59:34;12.67;;;11.37;;
2225;SDS011;1119;48.288;8.726;2023-06-22T13:02:01;12.27;;;11.30;;
2225;SDS011;1119;48.288;8.726;2023-06-22T13:04:30;11.53;;;10.33;;
2225;SDS011;1119;48.288;8.726;2023-06-22T13:06:57;11.50;;;10.60;;
2225;SDS011;1119;48.288;8.726;2023-06-22T13:09:25;11.77;;;10.77;;
2225;SDS011;1119;48.288;8.726;2023-06-22T13:11:52;10.93;;;9.93;;
2225;SDS011;1119;48.288;8.726;2023-06-22T13:14:19;13.53;;;9.93;;
2225;SDS011;1119;48.288;8.726;2023-06-22T13:16:47;12.10;;;11.13;;
2225;SDS011;1119;48.288;8.726;2023-06-22T13:19:14;10.57;;;9.67;;
2225;SDS011;1119;48.288;8.726;2023-06-22T13:21:43;10.87;;;9.97;;
2225;SDS011;1119;48.288;8.726;2023-06-22T13:24:10;9.90;;;9.17;;
2225;SDS011;1119;48.288;8.726;2023-06-22T13:26:38;11.33;;;10.10;;
2225;SDS011;1119;48.288;8.726;2023-06-22T13:29:05;12.13;;;10.90;;
2225;SDS011;1119;48.288;8.726;2023-06-22T13:31:32;12.73;;;10.17;;
2225;SDS011;1119;48.288;8.726;2023-06-22T13:33:59;11.23;;;10.00;;
2225;SDS011;1119;48.288;8.726;2023-06-22T13:36:27;10.00;;;9.20;;
2225;SDS011;1119;48.288;8.726;2023-06-22T13:38:57;12.73;;;9.70;;
2225;SDS011;1119;48.288;8.726;2023-06-22T13:41:24;12.60;;;9.30;;
2225;SDS011;1119;48.288;8.726;2023-06-22T13:43:52;11.73;;;10.80;;
2225;SDS011;1119;48.288;8.726;2023-06-22T13:46:19;10.90;;;10.00;;
2225;SDS011;1119;48.288;8.726;2023-06-22T13:48:46;10.93;;;9.17;;
2225;SDS011;1119;48.288;8.726;2023-06-22T13:51:13;13.67;;;9.37;;
2225;SDS011;1119;48.288;8.726;2023-06-22T13:53:41;12.23;;;11.27;;
2225;SDS011;1119;48.288;8.726;2023-06-22T13:56:09;10.83;;;9.93;;
2225;SDS011;1119;48.288;8.726;2023-06-22T13:58:37;11.37;;;10.27;;
2225;SDS011;1119;48.288;8.726;2023-06-22T14:01:04;10.77;;;10.00;;
2225;SDS011;1119;48.288;8.726;2023-06-22T14:03:32;11.70;;;10.47;;
2225;SDS011;1119;48.288;8.726;2023-06-22T14:05:59;11.03;;;10.07;;
2225;SDS011;1119;48.288;8.726;2023-06-22T14:08:26;10.70;;;9.60;;
2225;SDS011;1119;48.288;8.726;2023-06-22T14:10:53;11.53;;;9.37;;
2225;SDS011;1119;48.288;8.726;2023-06-22T14:13:22;9.63;;;8.83;;
2225;SDS011;1119;48.288;8.726;2023-06-22T14:15:49;10.43;;;9.23;;
2225;SDS011;1119;48.288;8.726;2023-06-22T14:18:17;11.77;;;8.73;;
2225;SDS011;1119;48.288;8.726;2023-06-22T14:20:44;9.70;;;8.10;;
2225;SDS011;1119;48.288;8.726;2023-06-22T14:23:13;10.33;;;9.43;;
2225;SDS011;1119;48.288;8.726;2023-06-22T14:25:40;9.70;;;8.60;;
2225;SDS011;1119;48.288;8.726;2023-06-22T14:28:07;7.87;;;7.37;;
2225;SDS011;1119;48.288;8.726;2023-06-22T14:30:36;8.03;;;7.47;;
2225;SDS011;1119;48.288;8.726;2023-06-22T14:33:03;9.97;;;8.97;;
2225;SDS011;1119;48.288;8.726;2023-06-22T14:35:30;9.53;;;8.60;;
2225;SDS011;1119;48.288;8.726;2023-06-22T14:37:58;9.33;;;8.43;;
2225;SDS011;1119;48.288;8.726;2023-06-22T14:40:25;10.27;;;9.20;;
2225;SDS011;1119;48.288;8.726;2023-06-22T14:42:52;10.10;;;9.07;;
2225;SDS011;1119;48.288;8.726;2023-06-22T14:45:21;11.20;;;8.23;;
2225;SDS011;1119;48.288;8.726;2023-06-22T14:47:50;10.53;;;7.73;;
2225;SDS011;1119;48.288;8.726;2023-06-22T14:50:17;11.40;;;8.60;;
2225;SDS011;1119;48.288;8.726;2023-06-22T14:52:45;8.17;;;7.33;;
2225;SDS011;1119;48.288;8.726;2023-06-22T14:55:12;11.07;;;8.13;;
2225;SDS011;1119;48.288;8.726;2023-06-22T14:57:39;10.10;;;8.33;;
2225;SDS011;1119;48.288;8.726;2023-06-22T15:00:07;13.73;;;8.27;;